עמוד ראשי
METAR-TAF:

METAR-TAF

שדות תעופה :

Vilhena, רונדוניה, ברזיל

קו רוחב: 12-42S, קו אורך: 060-06W, גובה: 612מטר

תצפית מזג אוויר נוכחית

הדו"ח נערך לפני 4 שעות ו 27דקות, בשעה 23:00 UTC
רוח 3קשר מכיוון צפון/צפון-מזרח
טמפרטורת 25 צלסיוס
לחות 47%
לחץ 1018 hPa
ראות 10 קילומטר או יותר
ללא עננים שבסיסם נמוך מ 5000 רגל או קומולונימבוס

METAR: SBVH 242300Z 02003KT CAVOK 25/13 Q1018

זמן: 23:27 (03:27 UTC)

תחזית

הדו"ח נערך לפני 7 שעות ו 24דקות, בשעה 20:03 UTC
תחזית בתוקף מ 25 ב 00 UTC עד 25 ב 12 UTC
רוח 6קשר מכיוון מזרח/צפון-מזרח
ראות 10 קילומטר או יותר
ללא עננים שבסיסם נמוך מ 5000 רגל או קומולונימבוס

TAF: SBVH 242003Z 2500/2512 07006KT CAVOK TN19/2509Z TX22/2512Z RMK PFV

תצפיות ותחזיות מזג אוויר לגבי יותר מ- 4,000 שדות תעופה ברחבי העולם. דוחות METAR ו- TAF.

התחנות הזמינות מסומנות בנקודות צהובות ואדומות על גבי המפה.

העבר את העכבר לנקודה הצבעונית על מנת לראות את שם התחנה.

לאחר מכן, לחץ כדי לראות את תוכן ואת תחזיות מזג האוויר.

כדי לשנות את המפה: לחץ על הכפתורים הירוקים עם הפלוס השחור כדי להתקרב; על הכפתור הירוק עם המקף כדי להתרחק; או בחיצים הירוקים למפות סמוכות.


METAR-TAF: